sensor_id;sensor_type;location;lat;lon;timestamp;P1;durP1;ratioP1;P2;durP2;ratioP2
28509;SDS011;15723;55.684;37.928;2023-05-29T00:02:22;7.97;;;3.17;;
28509;SDS011;15723;55.684;37.928;2023-05-29T00:04:55;7.60;;;3.03;;
28509;SDS011;15723;55.684;37.928;2023-05-29T00:07:24;8.60;;;3.38;;
28509;SDS011;15723;55.684;37.928;2023-05-29T00:09:50;8.55;;;3.47;;
28509;SDS011;15723;55.684;37.928;2023-05-29T00:12:17;7.88;;;3.08;;
28509;SDS011;15723;55.684;37.928;2023-05-29T00:14:44;10.35;;;3.60;;
28509;SDS011;15723;55.684;37.928;2023-05-29T00:17:10;9.48;;;3.22;;
28509;SDS011;15723;55.684;37.928;2023-05-29T00:19:38;7.25;;;2.90;;
28509;SDS011;15723;55.684;37.928;2023-05-29T00:22:04;6.65;;;3.50;;
28509;SDS011;15723;55.684;37.928;2023-05-29T00:24:30;7.60;;;3.10;;
28509;SDS011;15723;55.684;37.928;2023-05-29T00:26:57;7.22;;;2.90;;
28509;SDS011;15723;55.684;37.928;2023-05-29T00:29:23;8.65;;;3.13;;
28509;SDS011;15723;55.684;37.928;2023-05-29T00:31:49;5.93;;;2.83;;
28509;SDS011;15723;55.684;37.928;2023-05-29T00:34:19;3.85;;;2.67;;
28509;SDS011;15723;55.684;37.928;2023-05-29T00:36:48;5.22;;;2.45;;
28509;SDS011;15723;55.684;37.928;2023-05-29T00:39:14;8.95;;;2.63;;
28509;SDS011;15723;55.684;37.928;2023-05-29T00:41:41;5.72;;;2.75;;
28509;SDS011;15723;55.684;37.928;2023-05-29T00:44:07;3.75;;;2.25;;
28509;SDS011;15723;55.684;37.928;2023-05-29T00:46:34;5.10;;;3.00;;
28509;SDS011;15723;55.684;37.928;2023-05-29T00:49:01;6.28;;;2.58;;
28509;SDS011;15723;55.684;37.928;2023-05-29T00:51:30;3.67;;;2.20;;
28509;SDS011;15723;55.684;37.928;2023-05-29T00:53:57;9.40;;;2.60;;
28509;SDS011;15723;55.684;37.928;2023-05-29T00:56:24;10.80;;;2.70;;
28509;SDS011;15723;55.684;37.928;2023-05-29T00:58:51;7.88;;;2.35;;
28509;SDS011;15723;55.684;37.928;2023-05-29T01:01:18;8.93;;;2.30;;
28509;SDS011;15723;55.684;37.928;2023-05-29T01:03:47;7.88;;;2.65;;
28509;SDS011;15723;55.684;37.928;2023-05-29T01:06:19;8.18;;;2.72;;
28509;SDS011;15723;55.684;37.928;2023-05-29T01:08:46;6.15;;;2.38;;
28509;SDS011;15723;55.684;37.928;2023-05-29T01:11:14;5.95;;;3.05;;
28509;SDS011;15723;55.684;37.928;2023-05-29T01:13:52;5.65;;;2.28;;
28509;SDS011;15723;55.684;37.928;2023-05-29T01:16:31;7.53;;;2.50;;
28509;SDS011;15723;55.684;37.928;2023-05-29T01:19:10;5.65;;;2.50;;
28509;SDS011;15723;55.684;37.928;2023-05-29T01:28:44;5.53;;;2.45;;
28509;SDS011;15723;55.684;37.928;2023-05-29T01:31:17;6.63;;;2.22;;
28509;SDS011;15723;55.684;37.928;2023-05-29T01:33:56;6.35;;;2.25;;
28509;SDS011;15723;55.684;37.928;2023-05-29T01:36:24;9.18;;;2.47;;
28509;SDS011;15723;55.684;37.928;2023-05-29T01:38:52;7.72;;;2.50;;
28509;SDS011;15723;55.684;37.928;2023-05-29T01:41:21;6.70;;;2.50;;
28509;SDS011;15723;55.684;37.928;2023-05-29T01:43:49;6.25;;;2.72;;
28509;SDS011;15723;55.684;37.928;2023-05-29T01:46:18;5.32;;;2.65;;
28509;SDS011;15723;55.684;37.928;2023-05-29T01:48:46;6.78;;;2.47;;
28509;SDS011;15723;55.684;37.928;2023-05-29T01:51:13;3.65;;;2.30;;
28509;SDS011;15723;55.684;37.928;2023-05-29T01:53:39;5.07;;;2.60;;
28509;SDS011;15723;55.684;37.928;2023-05-29T01:56:07;4.82;;;2.08;;
28509;SDS011;15723;55.684;37.928;2023-05-29T01:58:37;8.73;;;2.63;;
28509;SDS011;15723;55.684;37.928;2023-05-29T02:01:05;5.57;;;2.60;;
28509;SDS011;15723;55.684;37.928;2023-05-29T02:03:33;8.52;;;2.42;;
28509;SDS011;15723;55.684;37.928;2023-05-29T02:06:02;7.65;;;2.55;;
28509;SDS011;15723;55.684;37.928;2023-05-29T02:08:28;5.88;;;2.10;;
28509;SDS011;15723;55.684;37.928;2023-05-29T02:10:55;8.52;;;2.45;;
28509;SDS011;15723;55.684;37.928;2023-05-29T02:13:22;2.90;;;2.20;;
28509;SDS011;15723;55.684;37.928;2023-05-29T02:15:50;6.05;;;2.50;;
28509;SDS011;15723;55.684;37.928;2023-05-29T02:18:17;5.05;;;2.17;;
28509;SDS011;15723;55.684;37.928;2023-05-29T02:20:46;7.03;;;2.45;;
28509;SDS011;15723;55.684;37.928;2023-05-29T02:23:21;6.88;;;2.53;;
28509;SDS011;15723;55.684;37.928;2023-05-29T02:25:50;7.18;;;2.20;;
28509;SDS011;15723;55.684;37.928;2023-05-29T02:28:17;5.97;;;2.70;;
28509;SDS011;15723;55.684;37.928;2023-05-29T02:30:43;5.57;;;2.90;;
28509;SDS011;15723;55.684;37.928;2023-05-29T02:33:09;6.82;;;2.70;;
28509;SDS011;15723;55.684;37.928;2023-05-29T02:35:36;4.05;;;2.03;;
28509;SDS011;15723;55.684;37.928;2023-05-29T02:38:04;9.30;;;2.58;;
28509;SDS011;15723;55.684;37.928;2023-05-29T02:40:30;6.63;;;2.70;;
28509;SDS011;15723;55.684;37.928;2023-05-29T02:42:58;5.35;;;2.20;;
28509;SDS011;15723;55.684;37.928;2023-05-29T02:45:24;8.63;;;2.75;;
28509;SDS011;15723;55.684;37.928;2023-05-29T02:47:53;4.35;;;2.38;;
28509;SDS011;15723;55.684;37.928;2023-05-29T02:50:29;5.47;;;2.47;;
28509;SDS011;15723;55.684;37.928;2023-05-29T02:52:56;5.57;;;2.72;;
28509;SDS011;15723;55.684;37.928;2023-05-29T02:55:22;5.20;;;2.85;;
28509;SDS011;15723;55.684;37.928;2023-05-29T02:57:48;6.13;;;2.78;;
28509;SDS011;15723;55.684;37.928;2023-05-29T03:00:19;6.05;;;2.90;;
28509;SDS011;15723;55.684;37.928;2023-05-29T03:02:46;8.70;;;2.42;;
28509;SDS011;15723;55.684;37.928;2023-05-29T03:05:12;5.28;;;2.58;;
28509;SDS011;15723;55.684;37.928;2023-05-29T03:07:39;5.97;;;2.35;;
28509;SDS011;15723;55.684;37.928;2023-05-29T03:10:05;7.68;;;2.42;;
28509;SDS011;15723;55.684;37.928;2023-05-29T03:12:33;5.43;;;2.50;;
28509;SDS011;15723;55.684;37.928;2023-05-29T03:14:59;5.60;;;2.38;;
28509;SDS011;15723;55.684;37.928;2023-05-29T03:17:30;7.97;;;2.60;;
28509;SDS011;15723;55.684;37.928;2023-05-29T03:19:57;4.65;;;2.17;;
28509;SDS011;15723;55.684;37.928;2023-05-29T03:22:23;5.50;;;2.10;;
28509;SDS011;15723;55.684;37.928;2023-05-29T03:24:51;6.47;;;2.15;;
28509;SDS011;15723;55.684;37.928;2023-05-29T03:27:17;8.65;;;2.45;;
28509;SDS011;15723;55.684;37.928;2023-05-29T03:29:47;8.23;;;2.42;;
28509;SDS011;15723;55.684;37.928;2023-05-29T03:32:16;6.70;;;2.00;;
28509;SDS011;15723;55.684;37.928;2023-05-29T03:34:42;9.57;;;2.60;;
28509;SDS011;15723;55.684;37.928;2023-05-29T03:37:08;6.30;;;2.55;;
28509;SDS011;15723;55.684;37.928;2023-05-29T03:39:36;5.22;;;2.13;;
28509;SDS011;15723;55.684;37.928;2023-05-29T03:42:03;4.70;;;2.03;;
28509;SDS011;15723;55.684;37.928;2023-05-29T03:44:30;6.75;;;2.28;;
28509;SDS011;15723;55.684;37.928;2023-05-29T03:46:57;11.07;;;2.40;;
28509;SDS011;15723;55.684;37.928;2023-05-29T03:49:24;3.92;;;2.03;;
28509;SDS011;15723;55.684;37.928;2023-05-29T03:51:50;5.85;;;2.13;;
28509;SDS011;15723;55.684;37.928;2023-05-29T03:54:17;8.10;;;2.58;;
28509;SDS011;15723;55.684;37.928;2023-05-29T03:56:44;5.68;;;2.20;;
28509;SDS011;15723;55.684;37.928;2023-05-29T03:59:15;7.13;;;2.03;;
28509;SDS011;15723;55.684;37.928;2023-05-29T04:01:46;6.63;;;2.47;;
28509;SDS011;15723;55.684;37.928;2023-05-29T04:04:13;7.25;;;2.65;;
28509;SDS011;15723;55.684;37.928;2023-05-29T04:06:40;3.42;;;2.17;;
28509;SDS011;15723;55.684;37.928;2023-05-29T04:09:07;7.57;;;2.33;;
28509;SDS011;15723;55.684;37.928;2023-05-29T04:11:34;4.88;;;2.38;;
28509;SDS011;15723;55.684;37.928;2023-05-29T04:14:01;2.60;;;2.08;;
28509;SDS011;15723;55.684;37.928;2023-05-29T04:16:28;3.72;;;2.15;;
28509;SDS011;15723;55.684;37.928;2023-05-29T04:18:55;5.28;;;2.22;;
28509;SDS011;15723;55.684;37.928;2023-05-29T04:21:24;5.38;;;2.50;;
28509;SDS011;15723;55.684;37.928;2023-05-29T04:23:54;4.38;;;1.90;;
28509;SDS011;15723;55.684;37.928;2023-05-29T04:26:21;5.30;;;1.98;;
28509;SDS011;15723;55.684;37.928;2023-05-29T04:28:52;5.22;;;2.15;;
28509;SDS011;15723;55.684;37.928;2023-05-29T04:31:25;3.47;;;1.80;;
28509;SDS011;15723;55.684;37.928;2023-05-29T04:33:53;5.78;;;1.98;;
28509;SDS011;15723;55.684;37.928;2023-05-29T04:36:23;6.53;;;2.10;;
28509;SDS011;15723;55.684;37.928;2023-05-29T04:39:06;7.15;;;2.70;;
28509;SDS011;15723;55.684;37.928;2023-05-29T04:41:34;5.72;;;2.03;;
28509;SDS011;15723;55.684;37.928;2023-05-29T04:44:03;5.55;;;1.90;;
28509;SDS011;15723;55.684;37.928;2023-05-29T04:46:38;7.10;;;2.30;;
28509;SDS011;15723;55.684;37.928;2023-05-29T04:49:05;14.48;;;2.25;;
28509;SDS011;15723;55.684;37.928;2023-05-29T04:51:31;4.90;;;1.60;;
28509;SDS011;15723;55.684;37.928;2023-05-29T04:53:58;5.40;;;1.90;;
28509;SDS011;15723;55.684;37.928;2023-05-29T04:56:26;3.40;;;1.65;;
28509;SDS011;15723;55.684;37.928;2023-05-29T04:58:52;5.43;;;1.30;;
28509;SDS011;15723;55.684;37.928;2023-05-29T05:01:19;4.53;;;1.60;;
28509;SDS011;15723;55.684;37.928;2023-05-29T05:03:46;3.75;;;1.73;;
28509;SDS011;15723;55.684;37.928;2023-05-29T05:06:13;2.78;;;1.38;;
28509;SDS011;15723;55.684;37.928;2023-05-29T05:08:42;6.78;;;1.38;;
28509;SDS011;15723;55.684;37.928;2023-05-29T05:11:09;2.10;;;1.70;;
28509;SDS011;15723;55.684;37.928;2023-05-29T05:13:36;2.22;;;1.50;;
28509;SDS011;15723;55.684;37.928;2023-05-29T05:16:02;3.55;;;1.83;;
28509;SDS011;15723;55.684;37.928;2023-05-29T05:18:29;4.15;;;1.55;;
28509;SDS011;15723;55.684;37.928;2023-05-29T05:21:02;3.45;;;1.08;;
28509;SDS011;15723;55.684;37.928;2023-05-29T05:23:29;3.33;;;1.33;;
28509;SDS011;15723;55.684;37.928;2023-05-29T05:25:59;2.20;;;1.52;;
28509;SDS011;15723;55.684;37.928;2023-05-29T05:28:45;1.83;;;1.20;;
28509;SDS011;15723;55.684;37.928;2023-05-29T05:31:11;3.03;;;1.20;;
28509;SDS011;15723;55.684;37.928;2023-05-29T05:33:38;3.65;;;1.38;;
28509;SDS011;15723;55.684;37.928;2023-05-29T05:36:04;3.83;;;1.55;;
28509;SDS011;15723;55.684;37.928;2023-05-29T05:38:34;2.33;;;1.25;;
28509;SDS011;15723;55.684;37.928;2023-05-29T05:41:00;3.00;;;1.40;;
28509;SDS011;15723;55.684;37.928;2023-05-29T05:43:30;3.28;;;1.48;;
28509;SDS011;15723;55.684;37.928;2023-05-29T05:46:13;1.73;;;1.20;;
28509;SDS011;15723;55.684;37.928;2023-05-29T05:48:40;3.65;;;1.27;;
28509;SDS011;15723;55.684;37.928;2023-05-29T05:51:07;2.97;;;1.20;;
28509;SDS011;15723;55.684;37.928;2023-05-29T05:53:33;2.90;;;1.02;;
28509;SDS011;15723;55.684;37.928;2023-05-29T05:55:59;2.80;;;1.02;;
28509;SDS011;15723;55.684;37.928;2023-05-29T05:58:29;4.07;;;1.30;;
28509;SDS011;15723;55.684;37.928;2023-05-29T06:00:56;1.38;;;0.80;;
28509;SDS011;15723;55.684;37.928;2023-05-29T06:03:24;2.65;;;0.80;;
28509;SDS011;15723;55.684;37.928;2023-05-29T06:05:56;1.25;;;0.90;;
28509;SDS011;15723;55.684;37.928;2023-05-29T06:08:23;2.95;;;0.95;;
28509;SDS011;15723;55.684;37.928;2023-05-29T06:10:51;0.98;;;0.80;;
28509;SDS011;15723;55.684;37.928;2023-05-29T06:13:18;1.42;;;0.80;;
28509;SDS011;15723;55.684;37.928;2023-05-29T06:15:49;1.98;;;0.95;;
28509;SDS011;15723;55.684;37.928;2023-05-29T06:18:16;6.20;;;1.10;;
28509;SDS011;15723;55.684;37.928;2023-05-29T06:20:42;5.55;;;0.90;;
28509;SDS011;15723;55.684;37.928;2023-05-29T06:23:11;2.63;;;0.63;;
28509;SDS011;15723;55.684;37.928;2023-05-29T06:25:38;0.73;;;0.63;;
28509;SDS011;15723;55.684;37.928;2023-05-29T06:28:05;2.13;;;0.60;;
28509;SDS011;15723;55.684;37.928;2023-05-29T06:30:32;1.45;;;0.90;;
28509;SDS011;15723;55.684;37.928;2023-05-29T06:32:59;2.35;;;1.15;;
28509;SDS011;15723;55.684;37.928;2023-05-29T06:35:30;2.20;;;0.73;;
28509;SDS011;15723;55.684;37.928;2023-05-29T06:37:56;1.60;;;0.90;;
28509;SDS011;15723;55.684;37.928;2023-05-29T06:40:36;1.35;;;0.70;;
28509;SDS011;15723;55.684;37.928;2023-05-29T06:43:03;1.75;;;1.00;;
28509;SDS011;15723;55.684;37.928;2023-05-29T06:45:41;0.80;;;0.80;;
28509;SDS011;15723;55.684;37.928;2023-05-29T06:48:08;3.92;;;1.02;;
28509;SDS011;15723;55.684;37.928;2023-05-29T06:50:34;1.30;;;0.80;;
28509;SDS011;15723;55.684;37.928;2023-05-29T06:53:25;3.00;;;1.05;;
28509;SDS011;15723;55.684;37.928;2023-05-29T06:55:55;1.38;;;0.73;;
28509;SDS011;15723;55.684;37.928;2023-05-29T06:58:21;0.98;;;0.70;;
28509;SDS011;15723;55.684;37.928;2023-05-29T07:00:47;1.83;;;0.88;;
28509;SDS011;15723;55.684;37.928;2023-05-29T07:03:28;3.10;;;1.13;;
28509;SDS011;15723;55.684;37.928;2023-05-29T07:05:55;1.70;;;0.90;;
28509;SDS011;15723;55.684;37.928;2023-05-29T07:08:21;2.00;;;0.90;;
28509;SDS011;15723;55.684;37.928;2023-05-29T07:10:50;1.90;;;0.98;;
28509;SDS011;15723;55.684;37.928;2023-05-29T07:13:17;3.28;;;0.80;;
28509;SDS011;15723;55.684;37.928;2023-05-29T07:15:44;1.92;;;1.05;;
28509;SDS011;15723;55.684;37.928;2023-05-29T07:18:12;1.27;;;0.95;;
28509;SDS011;15723;55.684;37.928;2023-05-29T07:20:39;2.17;;;0.77;;
28509;SDS011;15723;55.684;37.928;2023-05-29T07:23:06;4.22;;;0.75;;
28509;SDS011;15723;55.684;37.928;2023-05-29T07:25:32;2.00;;;0.90;;
28509;SDS011;15723;55.684;37.928;2023-05-29T07:27:59;2.25;;;0.70;;
28509;SDS011;15723;55.684;37.928;2023-05-29T07:30:25;1.67;;;1.00;;
28509;SDS011;15723;55.684;37.928;2023-05-29T07:32:53;2.45;;;0.98;;
28509;SDS011;15723;55.684;37.928;2023-05-29T07:35:19;2.45;;;0.70;;
28509;SDS011;15723;55.684;37.928;2023-05-29T07:37:47;2.67;;;0.90;;
28509;SDS011;15723;55.684;37.928;2023-05-29T07:40:16;2.55;;;0.75;;
28509;SDS011;15723;55.684;37.928;2023-05-29T07:43:01;2.90;;;0.85;;
28509;SDS011;15723;55.684;37.928;2023-05-29T07:45:39;2.22;;;0.70;;
28509;SDS011;15723;55.684;37.928;2023-05-29T07:48:06;4.30;;;0.77;;
28509;SDS011;15723;55.684;37.928;2023-05-29T07:50:32;1.60;;;0.80;;
28509;SDS011;15723;55.684;37.928;2023-05-29T07:53:00;2.55;;;0.80;;
28509;SDS011;15723;55.684;37.928;2023-05-29T07:55:28;1.50;;;0.98;;
28509;SDS011;15723;55.684;37.928;2023-05-29T07:57:55;3.63;;;0.63;;
28509;SDS011;15723;55.684;37.928;2023-05-29T08:00:21;0.77;;;0.57;;
28509;SDS011;15723;55.684;37.928;2023-05-29T08:02:53;3.85;;;1.27;;
28509;SDS011;15723;55.684;37.928;2023-05-29T08:05:38;7.32;;;0.90;;
28509;SDS011;15723;55.684;37.928;2023-05-29T08:08:11;1.20;;;0.70;;
28509;SDS011;15723;55.684;37.928;2023-05-29T08:10:41;2.33;;;0.88;;
28509;SDS011;15723;55.684;37.928;2023-05-29T08:13:10;2.25;;;0.77;;
28509;SDS011;15723;55.684;37.928;2023-05-29T08:15:37;1.83;;;0.85;;
28509;SDS011;15723;55.684;37.928;2023-05-29T08:18:05;2.97;;;0.85;;
28509;SDS011;15723;55.684;37.928;2023-05-29T08:20:32;1.55;;;0.90;;
28509;SDS011;15723;55.684;37.928;2023-05-29T08:23:00;6.07;;;1.00;;
28509;SDS011;15723;55.684;37.928;2023-05-29T08:25:26;3.55;;;0.95;;
28509;SDS011;15723;55.684;37.928;2023-05-29T08:27:53;1.55;;;0.98;;
28509;SDS011;15723;55.684;37.928;2023-05-29T08:30:19;2.97;;;0.98;;
28509;SDS011;15723;55.684;37.928;2023-05-29T08:32:45;4.85;;;1.08;;
28509;SDS011;15723;55.684;37.928;2023-05-29T08:35:12;2.63;;;0.95;;
28509;SDS011;15723;55.684;37.928;2023-05-29T08:37:38;4.35;;;1.30;;
28509;SDS011;15723;55.684;37.928;2023-05-29T08:40:05;6.15;;;0.90;;
28509;SDS011;15723;55.684;37.928;2023-05-29T08:45:42;2.50;;;0.90;;
28509;SDS011;15723;55.684;37.928;2023-05-29T08:48:10;2.13;;;0.93;;
28509;SDS011;15723;55.684;37.928;2023-05-29T08:50:46;1.92;;;1.08;;
28509;SDS011;15723;55.684;37.928;2023-05-29T08:53:13;2.88;;;1.33;;
28509;SDS011;15723;55.684;37.928;2023-05-29T08:55:45;5.35;;;1.10;;
28509;SDS011;15723;55.684;37.928;2023-05-29T08:58:13;4.30;;;0.95;;
28509;SDS011;15723;55.684;37.928;2023-05-29T09:00:41;3.40;;;0.95;;
28509;SDS011;15723;55.684;37.928;2023-05-29T09:03:07;2.13;;;0.93;;
28509;SDS011;15723;55.684;37.928;2023-05-29T09:05:33;4.80;;;0.98;;
28509;SDS011;15723;55.684;37.928;2023-05-29T09:08:05;5.15;;;1.67;;
28509;SDS011;15723;55.684;37.928;2023-05-29T09:10:34;2.60;;;1.02;;
28509;SDS011;15723;55.684;37.928;2023-05-29T09:13:02;4.40;;;1.13;;
28509;SDS011;15723;55.684;37.928;2023-05-29T09:15:39;6.55;;;1.33;;
28509;SDS011;15723;55.684;37.928;2023-05-29T09:18:08;2.60;;;1.10;;
28509;SDS011;15723;55.684;37.928;2023-05-29T09:20:35;2.15;;;0.80;;
28509;SDS011;15723;55.684;37.928;2023-05-29T09:23:02;2.67;;;1.30;;
28509;SDS011;15723;55.684;37.928;2023-05-29T09:25:31;1.48;;;1.00;;
28509;SDS011;15723;55.684;37.928;2023-05-29T09:27:59;4.00;;;1.10;;
28509;SDS011;15723;55.684;37.928;2023-05-29T09:32:58;3.50;;;1.27;;
28509;SDS011;15723;55.684;37.928;2023-05-29T09:35:48;2.50;;;1.20;;
28509;SDS011;15723;55.684;37.928;2023-05-29T09:38:14;2.88;;;0.98;;
28509;SDS011;15723;55.684;37.928;2023-05-29T09:40:41;3.00;;;1.00;;
28509;SDS011;15723;55.684;37.928;2023-05-29T09:43:14;1.27;;;0.90;;
28509;SDS011;15723;55.684;37.928;2023-05-29T09:45:43;1.38;;;0.77;;
28509;SDS011;15723;55.684;37.928;2023-05-29T09:48:25;1.77;;;0.77;;
28509;SDS011;15723;55.684;37.928;2023-05-29T09:50:51;2.67;;;1.25;;
28509;SDS011;15723;55.684;37.928;2023-05-29T09:53:20;3.00;;;0.90;;
28509;SDS011;15723;55.684;37.928;2023-05-29T09:55:50;7.07;;;1.30;;
28509;SDS011;15723;55.684;37.928;2023-05-29T09:58:19;3.75;;;1.08;;
28509;SDS011;15723;55.684;37.928;2023-05-29T10:00:49;4.68;;;1.55;;
28509;SDS011;15723;55.684;37.928;2023-05-29T10:03:19;5.28;;;1.48;;
28509;SDS011;15723;55.684;37.928;2023-05-29T10:05:47;4.85;;;1.40;;
28509;SDS011;15723;55.684;37.928;2023-05-29T10:08:19;2.75;;;1.10;;
28509;SDS011;15723;55.684;37.928;2023-05-29T10:10:47;4.13;;;1.33;;
28509;SDS011;15723;55.684;37.928;2023-05-29T10:15:47;2.60;;;1.15;;
28509;SDS011;15723;55.684;37.928;2023-05-29T10:18:23;4.22;;;1.30;;
28509;SDS011;15723;55.684;37.928;2023-05-29T10:20:52;2.55;;;1.20;;
28509;SDS011;15723;55.684;37.928;2023-05-29T10:23:24;4.55;;;1.33;;
28509;SDS011;15723;55.684;37.928;2023-05-29T10:25:57;3.50;;;1.15;;
28509;SDS011;15723;55.684;37.928;2023-05-29T10:28:30;8.43;;;1.33;;
28509;SDS011;15723;55.684;37.928;2023-05-29T10:31:00;4.20;;;1.20;;
28509;SDS011;15723;55.684;37.928;2023-05-29T10:33:39;3.75;;;1.10;;
28509;SDS011;15723;55.684;37.928;2023-05-29T10:36:41;2.58;;;1.20;;
28509;SDS011;15723;55.684;37.928;2023-05-29T10:39:13;3.75;;;1.38;;
28509;SDS011;15723;55.684;37.928;2023-05-29T10:41:39;4.85;;;1.27;;
28509;SDS011;15723;55.684;37.928;2023-05-29T10:47:11;2.67;;;1.40;;
28509;SDS011;15723;55.684;37.928;2023-05-29T10:49:38;2.88;;;1.40;;
28509;SDS011;15723;55.684;37.928;2023-05-29T10:52:04;5.18;;;1.13;;
28509;SDS011;15723;55.684;37.928;2023-05-29T10:54:39;3.60;;;1.95;;
28509;SDS011;15723;55.684;37.928;2023-05-29T10:57:07;5.18;;;1.10;;
28509;SDS011;15723;55.684;37.928;2023-05-29T10:59:38;5.22;;;1.40;;
28509;SDS011;15723;55.684;37.928;2023-05-29T11:02:04;3.38;;;1.10;;
28509;SDS011;15723;55.684;37.928;2023-05-29T11:04:33;6.22;;;1.60;;
28509;SDS011;15723;55.684;37.928;2023-05-29T11:07:00;3.92;;;1.10;;
28509;SDS011;15723;55.684;37.928;2023-05-29T11:09:36;2.90;;;1.27;;
28509;SDS011;15723;55.684;37.928;2023-05-29T11:12:24;2.70;;;0.90;;
28509;SDS011;15723;55.684;37.928;2023-05-29T11:20:04;4.35;;;1.10;;
28509;SDS011;15723;55.684;37.928;2023-05-29T11:25:22;4.18;;;1.20;;
28509;SDS011;15723;55.684;37.928;2023-05-29T11:27:48;2.58;;;1.33;;
28509;SDS011;15723;55.684;37.928;2023-05-29T11:30:18;4.85;;;1.58;;
28509;SDS011;15723;55.684;37.928;2023-05-29T11:32:45;5.47;;;1.40;;
28509;SDS011;15723;55.684;37.928;2023-05-29T11:35:12;3.38;;;1.30;;
28509;SDS011;15723;55.684;37.928;2023-05-29T11:37:40;2.75;;;1.42;;
28509;SDS011;15723;55.684;37.928;2023-05-29T11:40:09;5.13;;;1.20;;
28509;SDS011;15723;55.684;37.928;2023-05-29T11:42:40;4.60;;;1.52;;
28509;SDS011;15723;55.684;37.928;2023-05-29T11:45:10;1.65;;;1.05;;
28509;SDS011;15723;55.684;37.928;2023-05-29T11:47:57;4.85;;;1.23;;
28509;SDS011;15723;55.684;37.928;2023-05-29T11:50:26;5.13;;;1.23;;
28509;SDS011;15723;55.684;37.928;2023-05-29T11:52:55;6.53;;;1.25;;
28509;SDS011;15723;55.684;37.928;2023-05-29T11:55:23;2.38;;;1.30;;
28509;SDS011;15723;55.684;37.928;2023-05-29T11:57:50;2.90;;;1.10;;
28509;SDS011;15723;55.684;37.928;2023-05-29T12:00:21;3.88;;;1.20;;
28509;SDS011;15723;55.684;37.928;2023-05-29T12:02:48;3.72;;;1.20;;
28509;SDS011;15723;55.684;37.928;2023-05-29T12:05:15;2.60;;;1.20;;
28509;SDS011;15723;55.684;37.928;2023-05-29T12:07:51;1.35;;;1.00;;
28509;SDS011;15723;55.684;37.928;2023-05-29T12:10:20;2.85;;;1.33;;
28509;SDS011;15723;55.684;37.928;2023-05-29T12:12:49;8.90;;;1.58;;
28509;SDS011;15723;55.684;37.928;2023-05-29T12:15:20;2.65;;;0.98;;
28509;SDS011;15723;55.684;37.928;2023-05-29T12:17:47;4.25;;;1.30;;
28509;SDS011;15723;55.684;37.928;2023-05-29T12:20:16;9.43;;;1.20;;
28509;SDS011;15723;55.684;37.928;2023-05-29T12:22:46;5.22;;;1.20;;
28509;SDS011;15723;55.684;37.928;2023-05-29T12:27:43;2.38;;;1.00;;
28509;SDS011;15723;55.684;37.928;2023-05-29T12:30:13;3.85;;;1.10;;
28509;SDS011;15723;55.684;37.928;2023-05-29T12:32:41;2.30;;;1.50;;
28509;SDS011;15723;55.684;37.928;2023-05-29T12:35:12;7.15;;;1.20;;
28509;SDS011;15723;55.684;37.928;2023-05-29T12:37:44;2.97;;;1.40;;
28509;SDS011;15723;55.684;37.928;2023-05-29T12:40:17;3.97;;;1.13;;
28509;SDS011;15723;55.684;37.928;2023-05-29T12:42:46;3.67;;;1.17;;
28509;SDS011;15723;55.684;37.928;2023-05-29T12:45:14;3.17;;;1.20;;
28509;SDS011;15723;55.684;37.928;2023-05-29T12:50:30;5.35;;;1.40;;
28509;SDS011;15723;55.684;37.928;2023-05-29T12:55:33;7.07;;;1.30;;
28509;SDS011;15723;55.684;37.928;2023-05-29T12:58:08;5.65;;;1.38;;
28509;SDS011;15723;55.684;37.928;2023-05-29T13:00:37;8.88;;;1.38;;
28509;SDS011;15723;55.684;37.928;2023-05-29T13:03:05;2.15;;;1.30;;
28509;SDS011;15723;55.684;37.928;2023-05-29T13:05:32;2.95;;;1.58;;
28509;SDS011;15723;55.684;37.928;2023-05-29T13:07:59;3.38;;;1.17;;
28509;SDS011;15723;55.684;37.928;2023-05-29T13:10:26;2.95;;;0.98;;
28509;SDS011;15723;55.684;37.928;2023-05-29T13:12:56;4.68;;;1.42;;
28509;SDS011;15723;55.684;37.928;2023-05-29T13:15:24;2.35;;;1.15;;
28509;SDS011;15723;55.684;37.928;2023-05-29T13:17:54;3.13;;;1.35;;
28509;SDS011;15723;55.684;37.928;2023-05-29T13:20:20;1.83;;;1.10;;
28509;SDS011;15723;55.684;37.928;2023-05-29T13:22:47;6.93;;;1.40;;
28509;SDS011;15723;55.684;37.928;2023-05-29T13:25:15;7.32;;;1.80;;
28509;SDS011;15723;55.684;37.928;2023-05-29T13:27:44;4.07;;;1.60;;
28509;SDS011;15723;55.684;37.928;2023-05-29T13:30:12;2.42;;;1.30;;
28509;SDS011;15723;55.684;37.928;2023-05-29T13:32:40;5.35;;;1.60;;
28509;SDS011;15723;55.684;37.928;2023-05-29T13:35:07;8.10;;;1.48;;
28509;SDS011;15723;55.684;37.928;2023-05-29T13:37:35;3.03;;;1.20;;
28509;SDS011;15723;55.684;37.928;2023-05-29T13:40:02;3.40;;;1.20;;
28509;SDS011;15723;55.684;37.928;2023-05-29T13:42:31;2.50;;;1.25;;
28509;SDS011;15723;55.684;37.928;2023-05-29T13:44:58;4.97;;;1.30;;
28509;SDS011;15723;55.684;37.928;2023-05-29T13:47:24;4.70;;;1.48;;
28509;SDS011;15723;55.684;37.928;2023-05-29T13:49:54;2.78;;;1.40;;
28509;SDS011;15723;55.684;37.928;2023-05-29T13:52:20;7.38;;;1.33;;
28509;SDS011;15723;55.684;37.928;2023-05-29T13:54:46;6.18;;;1.52;;
28509;SDS011;15723;55.684;37.928;2023-05-29T13:59:51;1.80;;;1.10;;
28509;SDS011;15723;55.684;37.928;2023-05-29T14:02:17;5.50;;;1.55;;
28509;SDS011;15723;55.684;37.928;2023-05-29T14:04:44;2.78;;;1.52;;
28509;SDS011;15723;55.684;37.928;2023-05-29T14:07:10;4.50;;;1.33;;
28509;SDS011;15723;55.684;37.928;2023-05-29T14:09:36;4.50;;;1.30;;
28509;SDS011;15723;55.684;37.928;2023-05-29T14:12:03;4.60;;;1.38;;
28509;SDS011;15723;55.684;37.928;2023-05-29T14:14:29;5.13;;;1.27;;
28509;SDS011;15723;55.684;37.928;2023-05-29T14:16:55;5.22;;;1.52;;
28509;SDS011;15723;55.684;37.928;2023-05-29T14:19:22;3.25;;;1.85;;
28509;SDS011;15723;55.684;37.928;2023-05-29T14:21:48;4.72;;;1.45;;
28509;SDS011;15723;55.684;37.928;2023-05-29T14:24:15;3.45;;;1.27;;
28509;SDS011;15723;55.684;37.928;2023-05-29T14:26:44;3.35;;;1.27;;
28509;SDS011;15723;55.684;37.928;2023-05-29T14:29:13;4.90;;;1.35;;
28509;SDS011;15723;55.684;37.928;2023-05-29T14:31:41;6.50;;;1.40;;
28509;SDS011;15723;55.684;37.928;2023-05-29T14:34:08;3.97;;;1.38;;
28509;SDS011;15723;55.684;37.928;2023-05-29T14:36:35;3.72;;;1.50;;
28509;SDS011;15723;55.684;37.928;2023-05-29T14:39:01;4.60;;;1.60;;
28509;SDS011;15723;55.684;37.928;2023-05-29T14:41:28;3.20;;;1.20;;
28509;SDS011;15723;55.684;37.928;2023-05-29T14:43:55;3.17;;;1.45;;
28509;SDS011;15723;55.684;37.928;2023-05-29T14:46:24;6.53;;;1.38;;
28509;SDS011;15723;55.684;37.928;2023-05-29T14:48:58;3.88;;;1.17;;
28509;SDS011;15723;55.684;37.928;2023-05-29T14:51:25;4.65;;;1.45;;
28509;SDS011;15723;55.684;37.928;2023-05-29T14:53:54;7.00;;;1.20;;
28509;SDS011;15723;55.684;37.928;2023-05-29T14:56:20;4.15;;;1.65;;
28509;SDS011;15723;55.684;37.928;2023-05-29T14:58:47;5.50;;;1.88;;
28509;SDS011;15723;55.684;37.928;2023-05-29T15:01:16;3.95;;;1.20;;
28509;SDS011;15723;55.684;37.928;2023-05-29T15:03:44;4.78;;;1.30;;
28509;SDS011;15723;55.684;37.928;2023-05-29T15:06:11;6.18;;;1.55;;
28509;SDS011;15723;55.684;37.928;2023-05-29T15:08:38;1.88;;;1.00;;
28509;SDS011;15723;55.684;37.928;2023-05-29T15:11:05;7.40;;;1.23;;
28509;SDS011;15723;55.684;37.928;2023-05-29T15:13:32;3.05;;;1.60;;
28509;SDS011;15723;55.684;37.928;2023-05-29T15:15:58;3.03;;;1.38;;
28509;SDS011;15723;55.684;37.928;2023-05-29T15:18:30;4.63;;;1.50;;
28509;SDS011;15723;55.684;37.928;2023-05-29T15:20:56;4.20;;;1.25;;